Korolev, Russia
Current Conditions -  °F | °C
As of 2:30 PM on Thursday 27 Nov 2014 (Local Time) from UUEE Reporting Station
Haze Haze  
Wind Chill: 13°   Ceiling: 700
Heat Index: 19°   Visibility: 2.1mi
Dew Point: 18°   Wind: 4mph
Humidity: 93%   Direction: 220°SW
Pressure: 30.48"   Gusts: NA
Location:  55.93°N, 37.77°E
Report Text: UUEE 271130Z 22002MPS 3400 BR OVC007 M07/M08 Q1032 7512014525120151 NOSIG
Loading
Personal Weather Stations






























Interactive Weather Map New forecast layout! Learn more

10-Day Weather Forecast

Advertisements
Track Severe Weather on mobile